sensor_id;sensor_type;location;lat;lon;timestamp;P1;durP1;ratioP1;P2;durP2;ratioP2
15256;SDS011;7731;50.720;6.912;2024-02-26T00:01:46;3.07;;;1.67;;
15256;SDS011;7731;50.720;6.912;2024-02-26T00:04:27;3.03;;;1.80;;
15256;SDS011;7731;50.720;6.912;2024-02-26T00:07:00;4.40;;;2.03;;
15256;SDS011;7731;50.720;6.912;2024-02-26T00:09:31;1.63;;;1.50;;
15256;SDS011;7731;50.720;6.912;2024-02-26T00:12:03;1.83;;;1.60;;
15256;SDS011;7731;50.720;6.912;2024-02-26T00:14:54;3.67;;;2.37;;
15256;SDS011;7731;50.720;6.912;2024-02-26T00:17:25;3.67;;;2.53;;
15256;SDS011;7731;50.720;6.912;2024-02-26T00:20:00;3.17;;;2.10;;
15256;SDS011;7731;50.720;6.912;2024-02-26T00:22:35;2.07;;;1.70;;
15256;SDS011;7731;50.720;6.912;2024-02-26T00:25:06;2.83;;;1.80;;
15256;SDS011;7731;50.720;6.912;2024-02-26T00:27:44;3.57;;;1.87;;
15256;SDS011;7731;50.720;6.912;2024-02-26T00:30:15;3.00;;;2.00;;
15256;SDS011;7731;50.720;6.912;2024-02-26T00:32:45;3.97;;;2.20;;
15256;SDS011;7731;50.720;6.912;2024-02-26T00:35:18;2.53;;;1.93;;
15256;SDS011;7731;50.720;6.912;2024-02-26T00:37:58;2.77;;;1.80;;
15256;SDS011;7731;50.720;6.912;2024-02-26T00:40:30;2.87;;;1.80;;
15256;SDS011;7731;50.720;6.912;2024-02-26T00:43:01;3.07;;;1.90;;
15256;SDS011;7731;50.720;6.912;2024-02-26T00:45:31;5.60;;;2.03;;
15256;SDS011;7731;50.720;6.912;2024-02-26T00:48:02;6.00;;;2.63;;
15256;SDS011;7731;50.720;6.912;2024-02-26T00:50:36;4.77;;;2.00;;
15256;SDS011;7731;50.720;6.912;2024-02-26T00:53:07;3.57;;;2.30;;
15256;SDS011;7731;50.720;6.912;2024-02-26T00:55:40;2.30;;;1.83;;
15256;SDS011;7731;50.720;6.912;2024-02-26T00:58:10;3.20;;;1.50;;
15256;SDS011;7731;50.720;6.912;2024-02-26T01:00:41;1.60;;;1.40;;
15256;SDS011;7731;50.720;6.912;2024-02-26T01:03:11;2.00;;;1.50;;
15256;SDS011;7731;50.720;6.912;2024-02-26T01:05:44;1.53;;;1.30;;
15256;SDS011;7731;50.720;6.912;2024-02-26T01:08:15;2.20;;;1.30;;
15256;SDS011;7731;50.720;6.912;2024-02-26T01:10:45;2.33;;;1.40;;
15256;SDS011;7731;50.720;6.912;2024-02-26T01:13:16;1.60;;;1.40;;
15256;SDS011;7731;50.720;6.912;2024-02-26T01:15:46;2.00;;;1.30;;
15256;SDS011;7731;50.720;6.912;2024-02-26T01:18:19;2.90;;;1.40;;
15256;SDS011;7731;50.720;6.912;2024-02-26T01:20:54;2.67;;;1.20;;
15256;SDS011;7731;50.720;6.912;2024-02-26T01:23:25;3.20;;;1.37;;
15256;SDS011;7731;50.720;6.912;2024-02-26T01:25:58;1.57;;;1.20;;
15256;SDS011;7731;50.720;6.912;2024-02-26T01:28:29;1.23;;;1.10;;
15256;SDS011;7731;50.720;6.912;2024-02-26T01:30:59;1.77;;;1.07;;
15256;SDS011;7731;50.720;6.912;2024-02-26T01:33:37;1.17;;;1.07;;
15256;SDS011;7731;50.720;6.912;2024-02-26T01:36:13;1.20;;;1.10;;
15256;SDS011;7731;50.720;6.912;2024-02-26T01:38:43;1.47;;;1.10;;
15256;SDS011;7731;50.720;6.912;2024-02-26T01:41:16;1.77;;;1.20;;
15256;SDS011;7731;50.720;6.912;2024-02-26T01:43:55;1.93;;;1.10;;
15256;SDS011;7731;50.720;6.912;2024-02-26T01:46:32;1.33;;;1.23;;
15256;SDS011;7731;50.720;6.912;2024-02-26T01:49:05;2.67;;;1.33;;
15256;SDS011;7731;50.720;6.912;2024-02-26T01:51:44;2.67;;;1.30;;
15256;SDS011;7731;50.720;6.912;2024-02-26T01:54:15;2.33;;;1.57;;
15256;SDS011;7731;50.720;6.912;2024-02-26T01:56:46;1.80;;;1.40;;
15256;SDS011;7731;50.720;6.912;2024-02-26T01:59:20;2.80;;;1.30;;
15256;SDS011;7731;50.720;6.912;2024-02-26T02:01:52;1.80;;;1.33;;
15256;SDS011;7731;50.720;6.912;2024-02-26T02:04:28;1.57;;;1.27;;
15256;SDS011;7731;50.720;6.912;2024-02-26T02:07:02;1.63;;;1.20;;
15256;SDS011;7731;50.720;6.912;2024-02-26T02:09:34;1.70;;;1.33;;
15256;SDS011;7731;50.720;6.912;2024-02-26T02:12:05;2.33;;;1.30;;
15256;SDS011;7731;50.720;6.912;2024-02-26T02:14:44;1.90;;;1.30;;
15256;SDS011;7731;50.720;6.912;2024-02-26T02:17:14;1.77;;;1.17;;
15256;SDS011;7731;50.720;6.912;2024-02-26T02:19:45;1.50;;;1.27;;
15256;SDS011;7731;50.720;6.912;2024-02-26T02:22:27;2.07;;;1.40;;
15256;SDS011;7731;50.720;6.912;2024-02-26T02:24:58;2.20;;;1.10;;
15256;SDS011;7731;50.720;6.912;2024-02-26T02:27:30;1.60;;;1.00;;
15256;SDS011;7731;50.720;6.912;2024-02-26T02:30:13;1.50;;;1.20;;
15256;SDS011;7731;50.720;6.912;2024-02-26T02:32:49;2.07;;;1.20;;
15256;SDS011;7731;50.720;6.912;2024-02-26T02:35:20;1.20;;;1.10;;
15256;SDS011;7731;50.720;6.912;2024-02-26T02:37:54;1.40;;;1.10;;
15256;SDS011;7731;50.720;6.912;2024-02-26T02:40:28;1.53;;;1.27;;
15256;SDS011;7731;50.720;6.912;2024-02-26T02:42:58;1.50;;;1.30;;
15256;SDS011;7731;50.720;6.912;2024-02-26T02:45:34;2.83;;;1.70;;
15256;SDS011;7731;50.720;6.912;2024-02-26T02:48:07;2.73;;;1.80;;
15256;SDS011;7731;50.720;6.912;2024-02-26T02:50:43;2.00;;;1.67;;
15256;SDS011;7731;50.720;6.912;2024-02-26T02:53:19;2.10;;;1.80;;
15256;SDS011;7731;50.720;6.912;2024-02-26T02:56:05;3.43;;;2.07;;
15256;SDS011;7731;50.720;6.912;2024-02-26T02:58:36;2.73;;;2.00;;
15256;SDS011;7731;50.720;6.912;2024-02-26T03:01:06;2.33;;;2.00;;
15256;SDS011;7731;50.720;6.912;2024-02-26T03:03:36;2.37;;;1.97;;
15256;SDS011;7731;50.720;6.912;2024-02-26T03:06:07;1.67;;;1.57;;
15256;SDS011;7731;50.720;6.912;2024-02-26T03:08:40;4.17;;;1.60;;
15256;SDS011;7731;50.720;6.912;2024-02-26T03:11:17;2.07;;;1.17;;
15256;SDS011;7731;50.720;6.912;2024-02-26T03:13:50;1.50;;;1.23;;
15256;SDS011;7731;50.720;6.912;2024-02-26T03:16:28;2.07;;;1.10;;
15256;SDS011;7731;50.720;6.912;2024-02-26T03:18:59;1.90;;;1.40;;
15256;SDS011;7731;50.720;6.912;2024-02-26T03:21:32;2.00;;;1.30;;
15256;SDS011;7731;50.720;6.912;2024-02-26T03:24:07;1.90;;;1.40;;
15256;SDS011;7731;50.720;6.912;2024-02-26T03:26:38;2.37;;;1.20;;
15256;SDS011;7731;50.720;6.912;2024-02-26T03:29:12;3.43;;;1.20;;
15256;SDS011;7731;50.720;6.912;2024-02-26T03:31:42;1.90;;;1.10;;
15256;SDS011;7731;50.720;6.912;2024-02-26T03:34:12;1.57;;;1.00;;
15256;SDS011;7731;50.720;6.912;2024-02-26T03:36:47;5.83;;;4.77;;
15256;SDS011;7731;50.720;6.912;2024-02-26T03:39:20;4.30;;;2.10;;
15256;SDS011;7731;50.720;6.912;2024-02-26T03:41:53;3.87;;;2.70;;
15256;SDS011;7731;50.720;6.912;2024-02-26T03:44:23;1.87;;;1.40;;
15256;SDS011;7731;50.720;6.912;2024-02-26T03:46:53;2.47;;;1.17;;
15256;SDS011;7731;50.720;6.912;2024-02-26T03:49:30;1.30;;;1.20;;
15256;SDS011;7731;50.720;6.912;2024-02-26T03:52:00;2.07;;;1.63;;
15256;SDS011;7731;50.720;6.912;2024-02-26T03:54:34;2.53;;;1.70;;
15256;SDS011;7731;50.720;6.912;2024-02-26T03:57:04;1.83;;;1.70;;
15256;SDS011;7731;50.720;6.912;2024-02-26T03:59:40;2.47;;;1.90;;
15256;SDS011;7731;50.720;6.912;2024-02-26T04:02:11;2.33;;;1.50;;
15256;SDS011;7731;50.720;6.912;2024-02-26T04:04:46;1.80;;;1.33;;
15256;SDS011;7731;50.720;6.912;2024-02-26T04:07:16;1.70;;;1.10;;
15256;SDS011;7731;50.720;6.912;2024-02-26T04:09:49;3.00;;;1.30;;
15256;SDS011;7731;50.720;6.912;2024-02-26T04:12:19;1.10;;;1.00;;
15256;SDS011;7731;50.720;6.912;2024-02-26T04:14:55;2.90;;;1.27;;
15256;SDS011;7731;50.720;6.912;2024-02-26T04:17:26;1.43;;;1.20;;
15256;SDS011;7731;50.720;6.912;2024-02-26T04:19:56;1.50;;;1.40;;
15256;SDS011;7731;50.720;6.912;2024-02-26T04:22:26;1.50;;;1.40;;
15256;SDS011;7731;50.720;6.912;2024-02-26T04:25:02;2.13;;;1.80;;
15256;SDS011;7731;50.720;6.912;2024-02-26T04:27:37;2.53;;;1.80;;
15256;SDS011;7731;50.720;6.912;2024-02-26T04:30:08;4.87;;;3.30;;
15256;SDS011;7731;50.720;6.912;2024-02-26T04:32:39;2.37;;;2.17;;
15256;SDS011;7731;50.720;6.912;2024-02-26T04:35:10;2.77;;;1.93;;
15256;SDS011;7731;50.720;6.912;2024-02-26T04:37:40;2.80;;;1.90;;
15256;SDS011;7731;50.720;6.912;2024-02-26T04:40:18;1.87;;;1.33;;
15256;SDS011;7731;50.720;6.912;2024-02-26T04:42:57;1.40;;;1.00;;
15256;SDS011;7731;50.720;6.912;2024-02-26T04:45:30;2.13;;;1.27;;
15256;SDS011;7731;50.720;6.912;2024-02-26T04:48:03;1.23;;;1.13;;
15256;SDS011;7731;50.720;6.912;2024-02-26T04:50:35;2.37;;;1.37;;
15256;SDS011;7731;50.720;6.912;2024-02-26T04:53:05;1.83;;;1.63;;
15256;SDS011;7731;50.720;6.912;2024-02-26T04:55:35;1.50;;;1.40;;
15256;SDS011;7731;50.720;6.912;2024-02-26T04:58:09;3.33;;;1.70;;
15256;SDS011;7731;50.720;6.912;2024-02-26T05:00:39;3.10;;;1.90;;
15256;SDS011;7731;50.720;6.912;2024-02-26T05:03:12;3.07;;;2.23;;
15256;SDS011;7731;50.720;6.912;2024-02-26T05:05:46;2.60;;;2.40;;
15256;SDS011;7731;50.720;6.912;2024-02-26T05:08:24;2.33;;;2.13;;
15256;SDS011;7731;50.720;6.912;2024-02-26T05:10:57;2.40;;;2.10;;
15256;SDS011;7731;50.720;6.912;2024-02-26T05:13:29;2.97;;;2.07;;
15256;SDS011;7731;50.720;6.912;2024-02-26T05:15:59;2.23;;;1.80;;
15256;SDS011;7731;50.720;6.912;2024-02-26T05:18:30;2.30;;;2.10;;
15256;SDS011;7731;50.720;6.912;2024-02-26T05:21:09;2.30;;;2.00;;
15256;SDS011;7731;50.720;6.912;2024-02-26T05:23:47;2.73;;;2.37;;
15256;SDS011;7731;50.720;6.912;2024-02-26T05:26:23;2.47;;;2.10;;
15256;SDS011;7731;50.720;6.912;2024-02-26T05:28:54;2.63;;;2.03;;
15256;SDS011;7731;50.720;6.912;2024-02-26T05:31:27;2.70;;;2.23;;
15256;SDS011;7731;50.720;6.912;2024-02-26T05:34:01;2.37;;;1.93;;
15256;SDS011;7731;50.720;6.912;2024-02-26T05:36:31;3.03;;;1.93;;
15256;SDS011;7731;50.720;6.912;2024-02-26T05:39:02;2.50;;;1.90;;
15256;SDS011;7731;50.720;6.912;2024-02-26T05:41:40;2.73;;;1.80;;
15256;SDS011;7731;50.720;6.912;2024-02-26T05:44:11;2.20;;;1.60;;
15256;SDS011;7731;50.720;6.912;2024-02-26T05:46:44;2.30;;;1.80;;
15256;SDS011;7731;50.720;6.912;2024-02-26T05:49:14;1.90;;;1.80;;
15256;SDS011;7731;50.720;6.912;2024-02-26T05:51:45;2.50;;;1.90;;
15256;SDS011;7731;50.720;6.912;2024-02-26T05:54:15;2.70;;;1.70;;
15256;SDS011;7731;50.720;6.912;2024-02-26T05:56:51;2.80;;;1.80;;
15256;SDS011;7731;50.720;6.912;2024-02-26T05:59:21;2.40;;;1.80;;
15256;SDS011;7731;50.720;6.912;2024-02-26T06:01:54;2.27;;;1.90;;
15256;SDS011;7731;50.720;6.912;2024-02-26T06:04:24;1.73;;;1.60;;
15256;SDS011;7731;50.720;6.912;2024-02-26T06:06:57;3.10;;;1.90;;
15256;SDS011;7731;50.720;6.912;2024-02-26T06:09:28;2.40;;;1.83;;
15256;SDS011;7731;50.720;6.912;2024-02-26T06:12:01;3.27;;;2.40;;
15256;SDS011;7731;50.720;6.912;2024-02-26T06:14:36;2.97;;;1.97;;
15256;SDS011;7731;50.720;6.912;2024-02-26T06:17:10;3.47;;;2.13;;
15256;SDS011;7731;50.720;6.912;2024-02-26T06:19:41;2.10;;;1.90;;
15256;SDS011;7731;50.720;6.912;2024-02-26T06:22:11;2.20;;;1.90;;
15256;SDS011;7731;50.720;6.912;2024-02-26T06:24:41;2.30;;;2.00;;
15256;SDS011;7731;50.720;6.912;2024-02-26T06:27:17;2.30;;;1.80;;
15256;SDS011;7731;50.720;6.912;2024-02-26T06:29:48;2.20;;;2.00;;
15256;SDS011;7731;50.720;6.912;2024-02-26T06:32:22;3.10;;;2.63;;
15256;SDS011;7731;50.720;6.912;2024-02-26T06:34:56;2.77;;;2.20;;
15256;SDS011;7731;50.720;6.912;2024-02-26T06:37:28;3.20;;;2.70;;
15256;SDS011;7731;50.720;6.912;2024-02-26T06:39:58;2.93;;;2.40;;
15256;SDS011;7731;50.720;6.912;2024-02-26T06:42:33;2.60;;;2.37;;
15256;SDS011;7731;50.720;6.912;2024-02-26T06:45:04;2.90;;;2.47;;
15256;SDS011;7731;50.720;6.912;2024-02-26T06:47:35;3.60;;;2.93;;
15256;SDS011;7731;50.720;6.912;2024-02-26T06:50:11;3.80;;;2.67;;
15256;SDS011;7731;50.720;6.912;2024-02-26T06:52:43;4.43;;;2.90;;
15256;SDS011;7731;50.720;6.912;2024-02-26T06:55:14;3.10;;;2.80;;
15256;SDS011;7731;50.720;6.912;2024-02-26T06:57:47;4.00;;;2.90;;
15256;SDS011;7731;50.720;6.912;2024-02-26T07:00:17;3.07;;;2.40;;
15256;SDS011;7731;50.720;6.912;2024-02-26T07:02:49;3.37;;;3.00;;
15256;SDS011;7731;50.720;6.912;2024-02-26T07:05:19;4.30;;;2.80;;
15256;SDS011;7731;50.720;6.912;2024-02-26T07:07:49;3.23;;;2.70;;
15256;SDS011;7731;50.720;6.912;2024-02-26T07:10:19;3.70;;;3.07;;
15256;SDS011;7731;50.720;6.912;2024-02-26T07:12:53;3.10;;;2.90;;
15256;SDS011;7731;50.720;6.912;2024-02-26T07:15:23;3.20;;;2.90;;
15256;SDS011;7731;50.720;6.912;2024-02-26T07:17:53;5.50;;;3.00;;
15256;SDS011;7731;50.720;6.912;2024-02-26T07:20:30;3.67;;;3.00;;
15256;SDS011;7731;50.720;6.912;2024-02-26T07:23:00;4.00;;;2.93;;
15256;SDS011;7731;50.720;6.912;2024-02-26T07:25:33;3.00;;;2.70;;
15256;SDS011;7731;50.720;6.912;2024-02-26T07:28:11;3.87;;;3.17;;
15256;SDS011;7731;50.720;6.912;2024-02-26T07:30:41;3.73;;;3.30;;
15256;SDS011;7731;50.720;6.912;2024-02-26T07:33:12;3.80;;;3.40;;
15256;SDS011;7731;50.720;6.912;2024-02-26T07:35:46;4.00;;;3.43;;
15256;SDS011;7731;50.720;6.912;2024-02-26T07:38:22;3.83;;;3.47;;
15256;SDS011;7731;50.720;6.912;2024-02-26T07:41:11;3.87;;;3.57;;
15256;SDS011;7731;50.720;6.912;2024-02-26T07:43:46;3.70;;;3.40;;
15256;SDS011;7731;50.720;6.912;2024-02-26T07:46:17;3.73;;;3.30;;
15256;SDS011;7731;50.720;6.912;2024-02-26T07:48:48;4.27;;;3.87;;
15256;SDS011;7731;50.720;6.912;2024-02-26T07:51:21;3.70;;;3.30;;
15256;SDS011;7731;50.720;6.912;2024-02-26T07:53:52;4.63;;;3.37;;
15256;SDS011;7731;50.720;6.912;2024-02-26T07:56:25;4.10;;;3.57;;
15256;SDS011;7731;50.720;6.912;2024-02-26T07:59:00;3.20;;;3.00;;
15256;SDS011;7731;50.720;6.912;2024-02-26T08:01:31;4.93;;;3.90;;
15256;SDS011;7731;50.720;6.912;2024-02-26T08:04:13;3.73;;;3.37;;
15256;SDS011;7731;50.720;6.912;2024-02-26T08:06:46;4.10;;;3.70;;
15256;SDS011;7731;50.720;6.912;2024-02-26T08:09:16;3.53;;;3.23;;
15256;SDS011;7731;50.720;6.912;2024-02-26T08:11:50;3.93;;;3.57;;
15256;SDS011;7731;50.720;6.912;2024-02-26T08:14:22;3.73;;;3.43;;
15256;SDS011;7731;50.720;6.912;2024-02-26T08:16:53;4.07;;;3.63;;
15256;SDS011;7731;50.720;6.912;2024-02-26T08:19:23;4.17;;;3.63;;
15256;SDS011;7731;50.720;6.912;2024-02-26T08:21:57;4.20;;;3.70;;
15256;SDS011;7731;50.720;6.912;2024-02-26T08:24:30;3.60;;;3.30;;
15256;SDS011;7731;50.720;6.912;2024-02-26T08:27:01;3.97;;;3.57;;
15256;SDS011;7731;50.720;6.912;2024-02-26T08:29:34;3.70;;;3.40;;
15256;SDS011;7731;50.720;6.912;2024-02-26T08:32:04;5.13;;;3.87;;
15256;SDS011;7731;50.720;6.912;2024-02-26T08:34:35;4.57;;;3.67;;
15256;SDS011;7731;50.720;6.912;2024-02-26T08:37:06;4.07;;;3.67;;
15256;SDS011;7731;50.720;6.912;2024-02-26T08:39:42;4.53;;;3.80;;
15256;SDS011;7731;50.720;6.912;2024-02-26T08:42:13;3.93;;;3.53;;
15256;SDS011;7731;50.720;6.912;2024-02-26T08:44:46;4.97;;;3.80;;
15256;SDS011;7731;50.720;6.912;2024-02-26T08:47:16;4.57;;;4.17;;
15256;SDS011;7731;50.720;6.912;2024-02-26T08:49:50;5.73;;;5.17;;
15256;SDS011;7731;50.720;6.912;2024-02-26T08:52:20;5.27;;;4.77;;
15256;SDS011;7731;50.720;6.912;2024-02-26T08:54:53;5.00;;;4.50;;
15256;SDS011;7731;50.720;6.912;2024-02-26T08:57:29;5.33;;;4.10;;
15256;SDS011;7731;50.720;6.912;2024-02-26T09:00:07;4.83;;;4.20;;
15256;SDS011;7731;50.720;6.912;2024-02-26T09:02:42;3.83;;;3.50;;
15256;SDS011;7731;50.720;6.912;2024-02-26T09:05:13;4.97;;;4.00;;
15256;SDS011;7731;50.720;6.912;2024-02-26T09:07:43;4.93;;;4.00;;
15256;SDS011;7731;50.720;6.912;2024-02-26T09:10:28;5.17;;;4.23;;
15256;SDS011;7731;50.720;6.912;2024-02-26T09:13:01;4.13;;;3.73;;
15256;SDS011;7731;50.720;6.912;2024-02-26T09:15:34;3.63;;;3.33;;
15256;SDS011;7731;50.720;6.912;2024-02-26T09:18:09;4.60;;;4.10;;
15256;SDS011;7731;50.720;6.912;2024-02-26T09:20:41;4.50;;;3.70;;
15256;SDS011;7731;50.720;6.912;2024-02-26T09:23:12;3.77;;;3.10;;
15256;SDS011;7731;50.720;6.912;2024-02-26T09:25:42;4.00;;;3.70;;
15256;SDS011;7731;50.720;6.912;2024-02-26T09:28:13;4.27;;;3.57;;
15256;SDS011;7731;50.720;6.912;2024-02-26T09:30:46;4.90;;;4.00;;
15256;SDS011;7731;50.720;6.912;2024-02-26T09:33:21;4.50;;;3.90;;
15256;SDS011;7731;50.720;6.912;2024-02-26T09:35:52;5.07;;;4.57;;
15256;SDS011;7731;50.720;6.912;2024-02-26T09:38:22;5.27;;;4.77;;
15256;SDS011;7731;50.720;6.912;2024-02-26T09:40:53;5.50;;;4.07;;
15256;SDS011;7731;50.720;6.912;2024-02-26T09:43:23;3.53;;;3.23;;
15256;SDS011;7731;50.720;6.912;2024-02-26T09:46:09;4.03;;;3.57;;
15256;SDS011;7731;50.720;6.912;2024-02-26T09:48:39;4.83;;;3.40;;
15256;SDS011;7731;50.720;6.912;2024-02-26T09:51:21;4.13;;;3.73;;
15256;SDS011;7731;50.720;6.912;2024-02-26T09:54:07;4.93;;;3.20;;
15256;SDS011;7731;50.720;6.912;2024-02-26T09:56:42;3.97;;;3.60;;
15256;SDS011;7731;50.720;6.912;2024-02-26T09:59:29;4.57;;;3.10;;
15256;SDS011;7731;50.720;6.912;2024-02-26T10:02:15;5.40;;;3.73;;
15256;SDS011;7731;50.720;6.912;2024-02-26T10:04:48;3.40;;;3.10;;
15256;SDS011;7731;50.720;6.912;2024-02-26T10:07:22;4.07;;;3.20;;
15256;SDS011;7731;50.720;6.912;2024-02-26T10:10:00;3.27;;;2.97;;
15256;SDS011;7731;50.720;6.912;2024-02-26T10:12:32;3.67;;;3.20;;
15256;SDS011;7731;50.720;6.912;2024-02-26T10:15:03;3.50;;;3.20;;
15256;SDS011;7731;50.720;6.912;2024-02-26T10:17:37;3.80;;;3.40;;
15256;SDS011;7731;50.720;6.912;2024-02-26T10:20:11;3.97;;;2.90;;
15256;SDS011;7731;50.720;6.912;2024-02-26T10:22:48;3.70;;;3.17;;
15256;SDS011;7731;50.720;6.912;2024-02-26T10:25:29;4.63;;;3.70;;
15256;SDS011;7731;50.720;6.912;2024-02-26T10:28:00;4.13;;;3.40;;
15256;SDS011;7731;50.720;6.912;2024-02-26T10:30:31;4.10;;;3.70;;
15256;SDS011;7731;50.720;6.912;2024-02-26T10:33:11;5.57;;;3.97;;
15256;SDS011;7731;50.720;6.912;2024-02-26T10:35:45;6.07;;;4.10;;
15256;SDS011;7731;50.720;6.912;2024-02-26T10:38:15;4.83;;;4.10;;
15256;SDS011;7731;50.720;6.912;2024-02-26T10:40:48;3.83;;;3.50;;
15256;SDS011;7731;50.720;6.912;2024-02-26T10:43:19;5.10;;;4.03;;
15256;SDS011;7731;50.720;6.912;2024-02-26T10:45:49;4.67;;;3.73;;
15256;SDS011;7731;50.720;6.912;2024-02-26T10:48:25;5.00;;;3.80;;
15256;SDS011;7731;50.720;6.912;2024-02-26T10:50:56;4.67;;;3.03;;
15256;SDS011;7731;50.720;6.912;2024-02-26T10:53:28;6.10;;;3.83;;
15256;SDS011;7731;50.720;6.912;2024-02-26T10:56:03;4.23;;;3.07;;
15256;SDS011;7731;50.720;6.912;2024-02-26T10:58:38;4.30;;;3.20;;
15256;SDS011;7731;50.720;6.912;2024-02-26T11:01:10;3.33;;;3.00;;
15256;SDS011;7731;50.720;6.912;2024-02-26T11:03:45;4.10;;;2.90;;
15256;SDS011;7731;50.720;6.912;2024-02-26T11:06:15;4.70;;;3.20;;
15256;SDS011;7731;50.720;6.912;2024-02-26T11:08:47;3.40;;;3.10;;
15256;SDS011;7731;50.720;6.912;2024-02-26T11:11:18;3.50;;;2.83;;
15256;SDS011;7731;50.720;6.912;2024-02-26T11:13:50;3.47;;;3.17;;
15256;SDS011;7731;50.720;6.912;2024-02-26T11:16:23;3.77;;;3.17;;
15256;SDS011;7731;50.720;6.912;2024-02-26T11:18:58;3.73;;;3.23;;
15256;SDS011;7731;50.720;6.912;2024-02-26T11:21:32;4.10;;;3.20;;
15256;SDS011;7731;50.720;6.912;2024-02-26T11:24:09;4.30;;;3.03;;
15256;SDS011;7731;50.720;6.912;2024-02-26T11:26:45;3.80;;;2.80;;
15256;SDS011;7731;50.720;6.912;2024-02-26T11:29:26;3.20;;;2.90;;
15256;SDS011;7731;50.720;6.912;2024-02-26T11:32:06;3.20;;;2.93;;
15256;SDS011;7731;50.720;6.912;2024-02-26T11:34:41;3.33;;;3.03;;
15256;SDS011;7731;50.720;6.912;2024-02-26T11:37:16;3.60;;;3.10;;
15256;SDS011;7731;50.720;6.912;2024-02-26T11:39:52;3.83;;;3.27;;
15256;SDS011;7731;50.720;6.912;2024-02-26T11:42:23;4.63;;;3.70;;
15256;SDS011;7731;50.720;6.912;2024-02-26T11:45:01;4.20;;;3.10;;
15256;SDS011;7731;50.720;6.912;2024-02-26T11:47:32;4.60;;;3.87;;
15256;SDS011;7731;50.720;6.912;2024-02-26T11:53:20;3.90;;;3.17;;
15256;SDS011;7731;50.720;6.912;2024-02-26T11:58:58;3.77;;;3.37;;
15256;SDS011;7731;50.720;6.912;2024-02-26T12:01:41;5.47;;;3.30;;
15256;SDS011;7731;50.720;6.912;2024-02-26T12:04:16;3.60;;;3.23;;
15256;SDS011;7731;50.720;6.912;2024-02-26T12:06:55;3.87;;;3.47;;
15256;SDS011;7731;50.720;6.912;2024-02-26T12:09:37;3.77;;;3.20;;
15256;SDS011;7731;50.720;6.912;2024-02-26T12:12:10;3.97;;;3.17;;
15256;SDS011;7731;50.720;6.912;2024-02-26T12:14:51;3.40;;;3.10;;
15256;SDS011;7731;50.720;6.912;2024-02-26T12:17:27;4.97;;;3.67;;
15256;SDS011;7731;50.720;6.912;2024-02-26T12:20:07;3.87;;;2.97;;
15256;SDS011;7731;50.720;6.912;2024-02-26T12:22:46;3.83;;;3.20;;
15256;SDS011;7731;50.720;6.912;2024-02-26T12:25:21;3.87;;;3.47;;
15256;SDS011;7731;50.720;6.912;2024-02-26T12:27:54;3.90;;;3.50;;
15256;SDS011;7731;50.720;6.912;2024-02-26T12:30:25;4.10;;;3.40;;
15256;SDS011;7731;50.720;6.912;2024-02-26T12:32:57;3.90;;;3.43;;
15256;SDS011;7731;50.720;6.912;2024-02-26T12:35:43;3.43;;;2.90;;
15256;SDS011;7731;50.720;6.912;2024-02-26T12:38:19;3.80;;;3.40;;
15256;SDS011;7731;50.720;6.912;2024-02-26T12:40:53;3.40;;;3.10;;
15256;SDS011;7731;50.720;6.912;2024-02-26T12:43:27;3.80;;;3.50;;
15256;SDS011;7731;50.720;6.912;2024-02-26T12:45:57;5.47;;;4.13;;
15256;SDS011;7731;50.720;6.912;2024-02-26T12:48:32;4.57;;;3.80;;
15256;SDS011;7731;50.720;6.912;2024-02-26T12:51:03;5.93;;;5.03;;
15256;SDS011;7731;50.720;6.912;2024-02-26T12:53:36;3.83;;;3.43;;
15256;SDS011;7731;50.720;6.912;2024-02-26T12:56:08;4.10;;;3.50;;
15256;SDS011;7731;50.720;6.912;2024-02-26T12:58:40;4.23;;;3.83;;
15256;SDS011;7731;50.720;6.912;2024-02-26T13:01:14;5.10;;;3.57;;
15256;SDS011;7731;50.720;6.912;2024-02-26T13:03:47;4.90;;;4.03;;
15256;SDS011;7731;50.720;6.912;2024-02-26T13:06:20;4.83;;;4.10;;
15256;SDS011;7731;50.720;6.912;2024-02-26T13:08:59;5.63;;;4.50;;
15256;SDS011;7731;50.720;6.912;2024-02-26T13:11:30;4.80;;;4.20;;
15256;SDS011;7731;50.720;6.912;2024-02-26T13:14:00;6.30;;;4.17;;
15256;SDS011;7731;50.720;6.912;2024-02-26T13:16:38;5.07;;;4.07;;
15256;SDS011;7731;50.720;6.912;2024-02-26T13:19:20;10.53;;;7.93;;
15256;SDS011;7731;50.720;6.912;2024-02-26T13:21:54;6.23;;;5.30;;
15256;SDS011;7731;50.720;6.912;2024-02-26T13:24:27;4.70;;;4.30;;
15256;SDS011;7731;50.720;6.912;2024-02-26T13:27:03;3.87;;;3.57;;
15256;SDS011;7731;50.720;6.912;2024-02-26T13:29:35;5.00;;;4.17;;
15256;SDS011;7731;50.720;6.912;2024-02-26T13:32:05;5.00;;;4.20;;
15256;SDS011;7731;50.720;6.912;2024-02-26T13:34:36;5.07;;;4.10;;
15256;SDS011;7731;50.720;6.912;2024-02-26T13:37:06;4.27;;;3.87;;
15256;SDS011;7731;50.720;6.912;2024-02-26T13:39:45;5.00;;;4.50;;
15256;SDS011;7731;50.720;6.912;2024-02-26T13:42:15;5.40;;;4.90;;
15256;SDS011;7731;50.720;6.912;2024-02-26T13:44:46;5.97;;;3.93;;
15256;SDS011;7731;50.720;6.912;2024-02-26T13:47:16;5.03;;;3.70;;
15256;SDS011;7731;50.720;6.912;2024-02-26T13:49:46;4.70;;;4.20;;
15256;SDS011;7731;50.720;6.912;2024-02-26T13:52:17;6.60;;;5.17;;
15256;SDS011;7731;50.720;6.912;2024-02-26T13:54:50;4.30;;;3.90;;
15256;SDS011;7731;50.720;6.912;2024-02-26T13:57:27;4.73;;;4.27;;
15256;SDS011;7731;50.720;6.912;2024-02-26T14:00:01;5.20;;;4.00;;
15256;SDS011;7731;50.720;6.912;2024-02-26T14:02:36;4.20;;;3.73;;
15256;SDS011;7731;50.720;6.912;2024-02-26T14:05:07;7.00;;;6.40;;
15256;SDS011;7731;50.720;6.912;2024-02-26T14:07:40;4.87;;;4.40;;
15256;SDS011;7731;50.720;6.912;2024-02-26T14:10:16;4.13;;;3.73;;
15256;SDS011;7731;50.720;6.912;2024-02-26T14:12:49;4.47;;;3.90;;
15256;SDS011;7731;50.720;6.912;2024-02-26T14:15:20;7.80;;;7.03;;
15256;SDS011;7731;50.720;6.912;2024-02-26T14:17:54;9.97;;;8.20;;
15256;SDS011;7731;50.720;6.912;2024-02-26T14:20:25;4.50;;;4.10;;
15256;SDS011;7731;50.720;6.912;2024-02-26T14:22:55;5.30;;;4.30;;
15256;SDS011;7731;50.720;6.912;2024-02-26T14:25:29;5.67;;;4.60;;
15256;SDS011;7731;50.720;6.912;2024-02-26T14:27:59;9.03;;;7.17;;
15256;SDS011;7731;50.720;6.912;2024-02-26T14:30:29;6.77;;;6.07;;
15256;SDS011;7731;50.720;6.912;2024-02-26T14:33:00;10.60;;;8.87;;
15256;SDS011;7731;50.720;6.912;2024-02-26T14:35:30;9.70;;;7.43;;
15256;SDS011;7731;50.720;6.912;2024-02-26T14:38:01;7.50;;;6.60;;
15256;SDS011;7731;50.720;6.912;2024-02-26T14:40:36;7.80;;;6.20;;
15256;SDS011;7731;50.720;6.912;2024-02-26T14:43:06;5.87;;;5.23;;
15256;SDS011;7731;50.720;6.912;2024-02-26T14:45:38;7.10;;;4.50;;
15256;SDS011;7731;50.720;6.912;2024-02-26T14:48:08;3.90;;;3.50;;
15256;SDS011;7731;50.720;6.912;2024-02-26T14:50:42;4.43;;;4.00;;
15256;SDS011;7731;50.720;6.912;2024-02-26T14:53:12;5.67;;;4.90;;
15256;SDS011;7731;50.720;6.912;2024-02-26T14:55:45;5.00;;;4.20;;
15256;SDS011;7731;50.720;6.912;2024-02-26T14:58:16;5.73;;;4.70;;
15256;SDS011;7731;50.720;6.912;2024-02-26T15:00:47;4.97;;;4.47;;
15256;SDS011;7731;50.720;6.912;2024-02-26T15:03:17;4.47;;;4.03;;
15256;SDS011;7731;50.720;6.912;2024-02-26T15:05:47;6.63;;;5.50;;
15256;SDS011;7731;50.720;6.912;2024-02-26T15:08:21;7.23;;;6.23;;
15256;SDS011;7731;50.720;6.912;2024-02-26T15:10:54;10.07;;;8.57;;
15256;SDS011;7731;50.720;6.912;2024-02-26T15:13:27;20.30;;;16.10;;
15256;SDS011;7731;50.720;6.912;2024-02-26T15:15:58;11.47;;;9.53;;
15256;SDS011;7731;50.720;6.912;2024-02-26T15:18:31;17.10;;;14.03;;
15256;SDS011;7731;50.720;6.912;2024-02-26T15:21:01;7.87;;;7.03;;
15256;SDS011;7731;50.720;6.912;2024-02-26T15:23:33;8.80;;;7.90;;
15256;SDS011;7731;50.720;6.912;2024-02-26T15:26:14;10.30;;;9.23;;
15256;SDS011;7731;50.720;6.912;2024-02-26T15:28:46;18.87;;;16.87;;
15256;SDS011;7731;50.720;6.912;2024-02-26T15:31:17;11.93;;;9.73;;
15256;SDS011;7731;50.720;6.912;2024-02-26T15:33:53;11.03;;;9.83;;
15256;SDS011;7731;50.720;6.912;2024-02-26T15:36:24;7.77;;;6.97;;
15256;SDS011;7731;50.720;6.912;2024-02-26T15:38:57;7.73;;;6.93;;
15256;SDS011;7731;50.720;6.912;2024-02-26T15:41:34;8.23;;;7.43;;
15256;SDS011;7731;50.720;6.912;2024-02-26T15:44:06;8.93;;;7.03;;